Time;durP1;ratioP1;P1;durP2;ratioP2;P2;SDS_P1;SDS_P2;PMS_P1;PMS_P2;Temp;Humidity;BMP_temperature;BMP_pressure;BME280_temperature;BME280_humidity;BME280_pressure;Samples;Min_cycle;Max_cycle;Signal;HPM_P1;HPM_P2
2023/07/28 00:00:21;;;;;;;5.00;4.47;;;;;;;18.22;100.00;99423.44;5121758;28;20488;-75
2023/07/28 00:02:52;;;;;;;5.32;4.32;;;;;;;18.25;100.00;99417.03;5122712;28;20083;-74
2023/07/28 00:05:22;;;;;;;7.13;4.20;;;;;;;18.22;100.00;99417.28;5121420;28;20035;-74
2023/07/28 00:07:52;;;;;;;6.82;4.20;;;;;;;18.19;100.00;99412.25;5122113;28;20496;-74
2023/07/28 00:10:22;;;;;;;5.90;4.68;;;;;;;18.19;100.00;99410.44;5127717;28;20034;-74
2023/07/28 00:12:53;;;;;;;7.07;4.28;;;;;;;18.20;100.00;99411.28;5123482;28;20038;-74
2023/07/28 00:15:23;;;;;;;6.57;4.10;;;;;;;18.21;100.00;99415.63;5122491;28;20172;-74
2023/07/28 00:17:53;;;;;;;5.22;3.95;;;;;;;18.22;100.00;99418.13;5110418;28;20515;-74
2023/07/28 00:20:24;;;;;;;5.72;4.05;;;;;;;18.28;100.00;99422.06;5129448;28;20076;-74
2023/07/28 00:22:54;;;;;;;5.35;3.60;;;;;;;18.30;100.00;99414.84;5127286;28;20022;-74
2023/07/28 00:25:24;;;;;;;5.03;3.90;;;;;;;18.29;100.00;99413.16;5121484;28;20027;-74
2023/07/28 00:27:55;;;;;;;4.85;3.72;;;;;;;18.26;100.00;99423.97;5107422;28;20437;-74
2023/07/28 00:30:26;;;;;;;5.85;3.63;;;;;;;18.31;100.00;99416.56;5134043;28;20032;-74
2023/07/28 00:32:56;;;;;;;4.85;3.45;;;;;;;18.33;100.00;99419.91;5123884;28;20027;-74
2023/07/28 00:35:26;;;;;;;7.07;3.40;;;;;;;18.29;100.00;99424.59;5130186;28;20691;-74
2023/07/28 00:37:57;;;;;;;4.50;3.40;;;;;;;18.29;100.00;99423.75;5128435;28;20258;-74
2023/07/28 00:40:27;;;;;;;7.32;3.53;;;;;;;18.33;100.00;99417.25;5136097;28;20286;-73
2023/07/28 00:42:57;;;;;;;7.47;3.30;;;;;;;18.41;100.00;99422.72;5125402;28;20027;-74
2023/07/28 00:45:30;;;;;;;4.85;3.28;;;;;;;18.31;100.00;99427.13;5144442;28;20626;-74
2023/07/28 00:48:01;;;;;;;6.97;3.70;;;;;;;18.32;100.00;99419.03;5129155;28;20420;-74
2023/07/28 00:50:31;;;;;;;6.60;3.97;;;;;;;18.29;100.00;99421.97;5129986;28;20043;-74
2023/07/28 00:53:02;;;;;;;4.05;3.30;;;;;;;18.29;100.00;99426.41;5112868;28;20042;-74
2023/07/28 00:55:32;;;;;;;6.68;3.67;;;;;;;18.27;100.00;99426.53;5123339;28;20520;-74
2023/07/28 00:58:03;;;;;;;5.22;3.70;;;;;;;18.29;100.00;99423.75;5095189;28;20105;-74
2023/07/28 01:00:33;;;;;;;5.45;3.40;;;;;;;18.31;100.00;99421.84;5129431;28;20034;-74
2023/07/28 01:03:04;;;;;;;4.35;3.55;;;;;;;18.32;100.00;99418.22;5141400;28;20061;-74
2023/07/28 01:05:40;;;;;;;4.63;3.60;;;;;;;18.28;100.00;99417.63;5142753;28;20104;-74
2023/07/28 01:08:21;;;;;;;5.22;3.63;;;;;;;18.20;100.00;99419.22;5139975;23;20026;-78
2023/07/28 01:10:52;;;;;;;4.45;3.67;;;;;;;18.23;100.00;99416.31;5139889;28;20041;-78
2023/07/28 01:13:22;;;;;;;5.88;3.42;;;;;;;18.27;100.00;99417.72;5150960;28;20377;-78
2023/07/28 01:15:52;;;;;;;4.73;3.53;;;;;;;18.25;100.00;99411.72;5146327;28;20329;-78
2023/07/28 01:18:23;;;;;;;4.33;3.20;;;;;;;18.21;100.00;99407.69;5143923;28;20708;-77
2023/07/28 01:20:57;;;;;;;5.25;3.65;;;;;;;18.19;100.00;99404.31;5226467;28;20288;-78
2023/07/28 01:23:56;;;;;;;4.45;3.50;;;;;;;18.27;100.00;99408.03;5192693;28;20069;-78
2023/07/28 01:26:35;;;;;;;3.58;3.20;;;;;;;18.31;100.00;99411.25;5158069;28;20035;-78
2023/07/28 01:29:07;;;;;;;4.07;3.20;;;;;;;18.27;100.00;99404.50;5194223;28;20027;-78
2023/07/28 01:31:38;;;;;;;5.47;3.38;;;;;;;18.27;100.00;99407.16;5167969;28;20145;-78
2023/07/28 01:34:08;;;;;;;4.80;3.15;;;;;;;18.28;100.00;99403.56;5155438;28;20062;-78
2023/07/28 01:36:38;;;;;;;4.07;3.10;;;;;;;18.30;100.00;99402.47;5159460;28;20030;-78
2023/07/28 01:39:09;;;;;;;4.95;3.35;;;;;;;18.24;100.00;99397.69;5158319;28;20544;-78
2023/07/28 01:41:43;;;;;;;3.57;3.10;;;;;;;18.33;100.00;99393.44;5197406;28;20100;-78
2023/07/28 01:44:13;;;;;;;5.82;4.00;;;;;;;18.44;100.00;99399.47;5180526;28;20712;-78
2023/07/28 01:46:43;;;;;;;4.35;3.40;;;;;;;18.33;100.00;99404.84;5152846;28;20027;-78
2023/07/28 01:49:14;;;;;;;4.07;3.03;;;;;;;18.40;100.00;99399.88;5139784;28;20034;-78
2023/07/28 01:51:44;;;;;;;4.33;3.03;;;;;;;18.40;100.00;99402.53;5185694;28;20035;-78
2023/07/28 01:54:14;;;;;;;4.22;3.10;;;;;;;18.37;100.00;99400.13;5161629;28;20369;-78
2023/07/28 01:56:44;;;;;;;3.97;3.03;;;;;;;18.32;100.00;99405.81;5162041;28;20109;-78
2023/07/28 01:59:15;;;;;;;3.17;2.80;;;;;;;18.31;100.00;99403.31;5170910;28;20281;-78
2023/07/28 02:01:45;;;;;;;4.55;2.85;;;;;;;18.27;100.00;99400.09;5153877;28;20027;-78
2023/07/28 02:04:16;;;;;;;3.90;2.90;;;;;;;18.35;100.00;99402.09;5191421;28;20078;-78
2023/07/28 02:06:46;;;;;;;3.28;2.83;;;;;;;18.28;100.00;99400.91;5218584;28;20027;-78
2023/07/28 02:09:17;;;;;;;5.28;2.70;;;;;;;18.31;100.00;99405.97;5168759;28;20030;-78
2023/07/28 02:11:47;;;;;;;2.97;2.60;;;;;;;18.29;100.00;99399.94;5183239;28;20058;-78
2023/07/28 02:14:17;;;;;;;3.88;2.63;;;;;;;18.26;100.00;99405.47;5158485;28;20081;-78
2023/07/28 02:16:48;;;;;;;3.67;2.40;;;;;;;18.27;100.00;99404.50;5161251;28;20082;-75
2023/07/28 02:19:18;;;;;;;5.13;2.45;;;;;;;18.30;100.00;99409.56;5170260;28;20039;-76
2023/07/28 02:21:49;;;;;;;3.53;2.33;;;;;;;18.31;100.00;99401.50;5182441;28;20057;-75
2023/07/28 02:24:19;;;;;;;3.33;2.00;;;;;;;18.27;100.00;99408.03;5164239;28;20810;-76
2023/07/28 02:26:49;;;;;;;2.45;2.00;;;;;;;18.22;100.00;99412.84;5169137;28;20029;-75
2023/07/28 02:29:20;;;;;;;3.72;1.88;;;;;;;18.85;100.00;99407.28;5166355;28;20233;-75
2023/07/28 02:31:50;;;;;;;5.13;1.98;;;;;;;18.90;100.00;99407.75;5176136;28;20032;-78
2023/07/28 02:34:20;;;;;;;2.47;1.90;;;;;;;19.10;100.00;99406.81;5170585;28;20037;-78
2023/07/28 02:36:50;;;;;;;2.90;1.75;;;;;;;18.98;100.00;99413.19;5136941;28;20100;-77
2023/07/28 02:39:21;;;;;;;4.43;1.95;;;;;;;18.97;100.00;99417.63;5192062;28;20060;-77
2023/07/28 02:41:51;;;;;;;1.77;1.40;;;;;;;18.42;100.00;99411.16;5153889;28;20028;-77
2023/07/28 02:44:21;;;;;;;2.80;2.38;;;;;;;18.35;100.00;99408.19;5180974;28;20067;-78
2023/07/28 02:46:52;;;;;;;2.75;1.70;;;;;;;18.27;100.00;99407.16;5171867;28;20115;-75
2023/07/28 02:49:22;;;;;;;2.05;1.42;;;;;;;18.27;100.00;99415.06;5173399;28;20021;-78
2023/07/28 02:51:53;;;;;;;4.20;1.92;;;;;;;18.32;100.00;99413.75;5140934;28;20030;-78
2023/07/28 02:54:25;;;;;;;4.73;1.60;;;;;;;18.27;100.00;99420.38;5181258;28;20467;-78
2023/07/28 02:56:55;;;;;;;2.40;1.52;;;;;;;18.27;100.00;99425.66;5182738;28;20322;-78
2023/07/28 02:59:25;;;;;;;2.40;1.38;;;;;;;18.30;100.00;99426.28;5192987;28;20522;-78
2023/07/28 03:01:57;;;;;;;1.65;1.30;;;;;;;18.31;100.00;99427.13;5162315;28;20300;-78
2023/07/28 03:04:27;;;;;;;1.67;1.38;;;;;;;18.30;100.00;99431.56;5145281;28;20104;-78
2023/07/28 03:06:58;;;;;;;2.38;1.40;;;;;;;18.38;100.00;99422.97;5156176;28;20032;-78
2023/07/28 03:09:28;;;;;;;3.67;1.50;;;;;;;18.30;100.00;99430.72;5167534;28;20459;-78
2023/07/28 03:11:58;;;;;;;5.97;1.30;;;;;;;18.32;100.00;99445.50;5160614;28;20049;-78
2023/07/28 03:14:29;;;;;;;2.42;1.23;;;;;;;18.30;100.00;99439.50;5169737;28;20027;-78
2023/07/28 03:16:59;;;;;;;2.58;1.65;;;;;;;18.28;100.00;99443.25;5155226;28;20034;-78
2023/07/28 03:19:29;;;;;;;3.42;1.20;;;;;;;18.24;100.00;99437.34;5166903;28;20074;-78
2023/07/28 03:22:00;;;;;;;1.27;1.05;;;;;;;18.24;100.00;99442.66;5162701;28;20065;-78
2023/07/28 03:24:30;;;;;;;2.53;1.08;;;;;;;18.30;100.00;99436.00;5149703;28;20330;-78
2023/07/28 03:27:00;;;;;;;2.05;1.20;;;;;;;18.25;100.00;99439.03;5176366;28;20044;-78
2023/07/28 03:29:31;;;;;;;1.47;1.00;;;;;;;18.31;100.00;99438.53;5179460;28;20097;-78
2023/07/28 03:32:01;;;;;;;1.77;1.10;;;;;;;18.29;100.00;99447.56;5165061;28;20290;-78
2023/07/28 03:34:31;;;;;;;1.70;0.97;;;;;;;18.26;100.00;99451.28;5170921;28;20282;-78
2023/07/28 03:37:03;;;;;;;3.50;1.15;;;;;;;18.25;100.00;99443.47;5187053;28;20281;-78
2023/07/28 03:39:33;;;;;;;1.33;1.00;;;;;;;18.22;100.00;99454.31;5163844;28;20477;-75
2023/07/28 03:42:04;;;;;;;2.08;0.98;;;;;;;18.21;100.00;99453.47;5160363;28;20084;-78
2023/07/28 03:44:34;;;;;;;3.00;1.20;;;;;;;18.24;100.00;99450.59;5163211;28;20569;-76
2023/07/28 03:47:05;;;;;;;2.63;1.00;;;;;;;18.19;100.00;99451.94;5155462;28;20038;-78
2023/07/28 03:49:35;;;;;;;2.47;0.80;;;;;;;18.23;100.00;99448.91;5172948;28;20492;-78
2023/07/28 03:52:05;;;;;;;2.08;0.80;;;;;;;18.24;100.00;99455.88;5158275;28;20050;-78
2023/07/28 03:54:36;;;;;;;6.45;1.00;;;;;;;18.28;100.00;99459.09;5158082;28;20028;-78
2023/07/28 03:57:06;;;;;;;1.77;0.88;;;;;;;18.20;100.00;99454.44;5169326;28;20038;-78
2023/07/28 03:59:37;;;;;;;2.63;1.00;;;;;;;18.26;100.00;99459.22;5175346;28;20500;-78
2023/07/28 04:02:07;;;;;;;0.90;0.80;;;;;;;18.23;100.00;99456.00;5177990;28;20486;-77
2023/07/28 04:04:37;;;;;;;0.90;0.70;;;;;;;18.24;100.00;99466.47;5167313;28;20032;-78
2023/07/28 04:07:07;;;;;;;1.33;0.70;;;;;;;18.24;100.00;99462.97;5151861;28;20062;-78
2023/07/28 04:09:38;;;;;;;0.70;0.52;;;;;;;18.26;100.00;99461.88;5180789;28;20114;-77
2023/07/28 04:12:08;;;;;;;1.05;0.70;;;;;;;18.29;100.00;99461.63;5169982;28;20186;-78
2023/07/28 04:14:38;;;;;;;2.20;0.70;;;;;;;18.39;100.00;99464.34;5164382;28;20590;-78
2023/07/28 04:17:09;;;;;;;4.38;0.75;;;;;;;18.28;100.00;99472.34;5182392;28;20024;-78
2023/07/28 04:19:39;;;;;;;2.13;0.65;;;;;;;18.30;100.00;99475.69;5165238;28;20034;-78
2023/07/28 04:22:09;;;;;;;1.35;0.60;;;;;;;18.34;100.00;99466.53;5146358;28;20031;-78
2023/07/28 04:24:39;;;;;;;2.50;0.70;;;;;;;18.28;100.00;99473.19;5160053;28;20027;-78
2023/07/28 04:27:10;;;;;;;2.13;0.77;;;;;;;18.32;100.00;99477.25;5139038;28;20500;-75
2023/07/28 04:29:40;;;;;;;1.00;0.70;;;;;;;18.37;100.00;99466.28;5152990;28;20027;-78
2023/07/28 04:32:10;;;;;;;1.07;0.63;;;;;;;18.39;100.00;99477.56;5146402;28;20282;-78
2023/07/28 04:34:40;;;;;;;1.10;0.60;;;;;;;18.36;100.00;99472.53;5154900;28;20285;-78
2023/07/28 04:37:11;;;;;;;1.27;0.67;;;;;;;18.33;100.00;99467.53;5195866;28;21008;-77
2023/07/28 04:39:41;;;;;;;1.02;0.70;;;;;;;18.39;100.00;99470.47;5163561;28;20278;-77
2023/07/28 04:42:11;;;;;;;1.85;0.90;;;;;;;18.38;100.00;99474.06;5164501;28;20052;-78
2023/07/28 04:44:42;;;;;;;1.48;0.80;;;;;;;18.33;100.00;99467.53;5142638;28;20415;-76
2023/07/28 04:47:12;;;;;;;1.52;0.63;;;;;;;18.28;100.00;99473.19;5192491;28;20212;-75
2023/07/28 04:49:43;;;;;;;1.40;0.68;;;;;;;18.32;100.00;99473.78;5162057;28;20043;-78
2023/07/28 04:52:13;;;;;;;2.20;0.80;;;;;;;18.34;100.00;99469.19;5143755;28;20033;-78
2023/07/28 04:54:43;;;;;;;1.05;0.90;;;;;;;18.33;100.00;99468.34;5176735;28;20023;-77
2023/07/28 04:57:13;;;;;;;1.42;0.90;;;;;;;18.36;100.00;99469.91;5175233;28;20031;-77
2023/07/28 04:59:44;;;;;;;3.30;1.00;;;;;;;18.39;100.00;99477.56;5159603;28;20459;-78
2023/07/28 05:02:14;;;;;;;1.57;0.97;;;;;;;18.40;100.00;99480.09;5167449;28;20027;-78
2023/07/28 05:04:44;;;;;;;1.03;0.90;;;;;;;18.38;100.00;99491.78;5145572;28;20282;-77
2023/07/28 05:07:14;;;;;;;0.70;0.70;;;;;;;18.53;100.00;99490.47;5159813;28;20286;-78
2023/07/28 05:09:45;;;;;;;5.25;0.90;;;;;;;18.52;100.00;99494.09;5170398;28;20286;-77
2023/07/28 05:12:15;;;;;;;1.45;0.90;;;;;;;18.49;100.00;99497.00;5177011;28;20035;-78
2023/07/28 05:14:46;;;;;;;1.43;0.80;;;;;;;18.48;100.00;99493.50;5148245;28;20064;-77
2023/07/28 05:17:16;;;;;;;1.27;0.88;;;;;;;18.53;100.00;99495.75;5160941;28;20963;-77
2023/07/28 05:19:46;;;;;;;1.88;0.85;;;;;;;18.54;100.00;99497.44;5161524;28;20388;-77
2023/07/28 05:22:17;;;;;;;2.70;1.02;;;;;;;18.57;100.00;99497.19;5177108;28;20031;-78
2023/07/28 05:24:47;;;;;;;0.90;0.70;;;;;;;18.63;100.00;99501.94;5157883;28;20060;-75
2023/07/28 05:27:17;;;;;;;1.65;0.85;;;;;;;18.63;100.00;99497.50;5156381;28;20539;-77
2023/07/28 05:29:48;;;;;;;3.20;1.00;;;;;;;18.62;100.00;99500.25;5139434;28;20502;-74
2023/07/28 05:32:18;;;;;;;0.90;0.70;;;;;;;18.71;100.00;99504.78;5150253;28;20043;-77
2023/07/28 05:34:48;;;;;;;3.90;0.70;;;;;;;18.73;100.00;99499.22;5151831;28;20371;-75
2023/07/28 05:37:19;;;;;;;2.65;0.88;;;;;;;18.72;100.00;99506.47;5139244;28;20278;-78
2023/07/28 05:39:49;;;;;;;1.08;0.80;;;;;;;18.73;100.00;99509.81;5137036;28;20106;-76
2023/07/28 05:42:19;;;;;;;1.42;0.80;;;;;;;18.72;100.00;99512.56;5147873;28;20481;-78
2023/07/28 05:44:52;;;;;;;1.42;0.88;;;;;;;18.91;100.00;99523.28;5143957;28;20030;-76
2023/07/28 05:47:22;;;;;;;1.63;0.82;;;;;;;18.83;100.00;99520.44;5149015;28;20318;-76
2023/07/28 05:49:55;;;;;;;0.70;0.60;;;;;;;18.82;100.00;99524.06;5137720;28;20035;-77
2023/07/28 05:52:25;;;;;;;1.30;0.80;;;;;;;18.73;100.00;99531.00;5147524;28;20031;-77
2023/07/28 05:54:56;;;;;;;1.20;0.60;;;;;;;18.77;100.00;99536.88;5138254;28;20033;-78
2023/07/28 05:57:26;;;;;;;1.10;0.87;;;;;;;18.72;100.00;99531.09;5160259;28;20705;-78
2023/07/28 05:59:56;;;;;;;2.05;0.90;;;;;;;18.71;100.00;99531.25;5151628;28;20277;-77
2023/07/28 06:02:27;;;;;;;1.00;0.73;;;;;;;18.73;100.00;99531.00;5149848;28;20037;-77
2023/07/28 06:04:57;;;;;;;4.63;1.00;;;;;;;18.77;100.00;99527.09;5161271;28;20489;-77
2023/07/28 06:07:27;;;;;;;1.13;0.82;;;;;;;18.80;100.00;99534.78;5150665;28;20027;-77
2023/07/28 06:09:57;;;;;;;1.70;1.00;;;;;;;18.74;100.00;99534.50;5146883;28;20076;-77
2023/07/28 06:12:28;;;;;;;1.43;1.20;;;;;;;18.84;100.00;99532.72;5151490;28;20286;-77
2023/07/28 06:14:58;;;;;;;1.83;1.10;;;;;;;18.76;100.00;99535.19;5167222;28;20722;-77
2023/07/28 06:17:28;;;;;;;1.98;1.15;;;;;;;18.83;100.00;99534.53;5186053;28;20275;-77
2023/07/28 06:19:59;;;;;;;4.10;1.10;;;;;;;18.81;100.00;99533.84;5164402;28;20080;-77
2023/07/28 06:22:29;;;;;;;2.60;1.02;;;;;;;18.80;100.00;99539.25;5140127;28;20472;-77
2023/07/28 06:24:59;;;;;;;1.77;1.30;;;;;;;18.83;100.00;99542.47;5145481;28;20033;-78
2023/07/28 06:27:30;;;;;;;2.38;1.20;;;;;;;18.88;100.00;99545.56;5158387;28;20040;-78
2023/07/28 06:30:00;;;;;;;1.87;1.50;;;;;;;18.86;100.00;99547.50;5152243;28;20385;-77
2023/07/28 06:32:30;;;;;;;2.72;1.85;;;;;;;18.88;100.00;99545.56;5159835;28;20282;-77
2023/07/28 06:35:01;;;;;;;2.40;1.52;;;;;;;18.95;100.00;99552.00;5164297;28;20471;-78
2023/07/28 06:37:31;;;;;;;2.08;1.52;;;;;;;18.90;100.00;99553.38;5161808;28;20488;-78
2023/07/28 06:40:01;;;;;;;2.10;1.70;;;;;;;18.87;100.00;99559.78;5154733;28;20079;-77
2023/07/28 06:42:33;;;;;;;2.88;1.70;;;;;;;19.01;100.00;99562.09;5157327;28;20406;-77
2023/07/28 06:45:04;;;;;;;3.20;1.58;;;;;;;19.01;100.00;99562.09;5148752;28;20508;-78
2023/07/28 06:47:35;;;;;;;3.53;1.60;;;;;;;19.04;100.00;99567.13;5150179;28;20041;-77
2023/07/28 06:50:05;;;;;;;2.47;1.60;;;;;;;19.07;100.00;99564.19;5151448;28;20027;-77
2023/07/28 06:52:36;;;;;;;5.28;1.75;;;;;;;19.04;100.00;99577.72;5153141;28;20529;-77
2023/07/28 06:55:07;;;;;;;2.30;1.70;;;;;;;19.10;100.00;99571.88;5165555;28;20033;-77
2023/07/28 06:57:37;;;;;;;3.92;1.42;;;;;;;18.95;100.00;99575.00;5170263;28;20103;-77
2023/07/28 07:00:11;;;;;;;1.75;1.55;;;;;;;18.90;100.00;99578.06;5148841;28;20038;-77
2023/07/28 07:02:41;;;;;;;2.50;1.73;;;;;;;18.93;100.00;99580.44;5162748;28;20081;-77
2023/07/28 07:05:11;;;;;;;2.40;1.83;;;;;;;19.04;100.00;99588.31;5157268;28;20473;-77
2023/07/28 07:07:42;;;;;;;2.40;1.50;;;;;;;19.10;100.00;99586.94;5162056;28;20038;-77
2023/07/28 07:10:12;;;;;;;2.53;1.92;;;;;;;19.08;100.00;99589.72;5159921;28;20033;-77
2023/07/28 07:12:42;;;;;;;2.83;1.80;;;;;;;19.12;100.00;99591.13;5157662;28;20031;-77
2023/07/28 07:15:12;;;;;;;3.33;1.73;;;;;;;19.13;100.00;99600.75;5150131;28;20430;-78
2023/07/28 07:17:43;;;;;;;2.60;1.93;;;;;;;19.23;100.00;99592.88;5157434;28;20480;-76
2023/07/28 07:20:13;;;;;;;3.80;1.60;;;;;;;19.23;100.00;99599.03;5151428;28;20736;-76
2023/07/28 07:22:43;;;;;;;2.58;1.60;;;;;;;19.27;100.00;99596.97;5147245;28;20026;-75
2023/07/28 07:25:14;;;;;;;2.53;1.53;;;;;;;19.28;100.00;99610.06;5155706;28;20028;-77
2023/07/28 07:27:45;;;;;;;2.45;1.63;;;;;;;19.27;100.00;99607.56;5153511;28;20409;-76
2023/07/28 07:30:15;;;;;;;2.40;1.80;;;;;;;19.42;100.00;99609.72;5138775;28;20363;-78
2023/07/28 07:32:45;;;;;;;2.10;1.70;;;;;;;19.66;100.00;99607.59;5153555;28;20022;-77
2023/07/28 07:35:16;;;;;;;2.13;1.60;;;;;;;19.69;100.00;99612.59;5162328;28;20035;-78
2023/07/28 07:37:46;;;;;;;1.80;1.58;;;;;;;19.68;100.00;99610.94;5163274;28;20838;-78
2023/07/28 07:40:17;;;;;;;2.70;1.93;;;;;;;19.80;100.00;99612.47;5165453;28;20130;-78
2023/07/28 07:42:48;;;;;;;2.85;2.00;;;;;;;19.69;100.00;99620.56;5162881;28;20285;-78
2023/07/28 07:45:18;;;;;;;5.57;1.70;;;;;;;19.47;100.00;99626.03;5167865;28;20041;-78
2023/07/28 07:47:48;;;;;;;2.27;1.80;;;;;;;19.28;100.00;99625.97;5158855;28;20121;-75
2023/07/28 07:50:19;;;;;;;4.95;2.28;;;;;;;19.28;100.00;99623.31;5161764;28;20285;-78
2023/07/28 07:52:49;;;;;;;3.47;2.10;;;;;;;19.21;100.00;99632.78;5160348;28;20031;-76
2023/07/28 07:55:19;;;;;;;2.60;2.00;;;;;;;19.17;100.00;99630.50;5171922;28;20285;-78
2023/07/28 07:57:50;;;;;;;4.15;2.42;;;;;;;19.16;100.00;99629.69;5163470;28;20133;-78
2023/07/28 08:00:20;;;;;;;3.15;2.42;;;;;;;19.29;100.00;99624.97;5175804;28;20037;-78
2023/07/28 08:02:50;;;;;;;3.10;2.47;;;;;;;19.25;100.00;99628.88;5155553;28;20038;-78
2023/07/28 08:05:21;;;;;;;3.15;2.35;;;;;;;19.22;100.00;99628.28;5156148;28;20040;-78
2023/07/28 08:07:51;;;;;;;2.83;2.20;;;;;;;19.22;100.00;99634.44;5170280;28;20031;-78
2023/07/28 08:10:22;;;;;;;3.47;2.53;;;;;;;19.30;100.00;99639.91;5159644;28;20028;-77
2023/07/28 08:12:53;;;;;;;4.35;2.70;;;;;;;19.35;100.00;99643.03;5145039;28;20031;-78
2023/07/28 08:15:23;;;;;;;3.83;2.75;;;;;;;19.39;100.00;99649.75;5178137;28;20024;-75
2023/07/28 08:17:54;;;;;;;4.95;2.80;;;;;;;19.44;100.00;99649.34;5155162;28;20035;-78
2023/07/28 08:20:24;;;;;;;3.55;2.60;;;;;;;19.46;100.00;99645.56;5155206;28;20557;-76
2023/07/28 08:22:54;;;;;;;4.07;2.77;;;;;;;19.50;100.00;99647.00;5169332;28;20480;-78
2023/07/28 08:25:24;;;;;;;4.50;2.80;;;;;;;19.49;100.00;99655.94;5161195;28;20370;-77
2023/07/28 08:27:55;;;;;;;6.60;2.65;;;;;;;19.58;100.00;99659.59;5158073;28;20274;-77
2023/07/28 08:30:25;;;;;;;3.30;2.78;;;;;;;19.56;100.00;99659.72;5178730;28;20234;-78
2023/07/28 08:32:55;;;;;;;4.20;2.53;;;;;;;19.72;100.00;99665.38;5149535;28;20034;-78
2023/07/28 08:35:26;;;;;;;3.35;2.72;;;;;;;19.63;100.00;99665.34;5171574;28;20038;-78
2023/07/28 08:37:56;;;;;;;4.20;2.90;;;;;;;19.69;100.00;99667.44;5169031;28;20103;-77
2023/07/28 08:40:27;;;;;;;4.50;3.03;;;;;;;19.85;100.00;99667.78;5158772;28;20175;-78
2023/07/28 08:42:57;;;;;;;3.70;2.90;;;;;;;19.88;100.00;99672.81;5157849;28;20282;-78
2023/07/28 08:45:28;;;;;;;3.20;2.58;;;;;;;19.99;100.00;99668.22;5159543;28;20036;-77
2023/07/28 08:47:58;;;;;;;3.78;2.53;;;;;;;19.93;100.00;99668.78;5159127;28;20031;-78
2023/07/28 08:50:29;;;;;;;2.90;2.45;;;;;;;20.07;100.00;99681.72;5146715;28;20072;-78
2023/07/28 08:52:59;;;;;;;4.35;2.72;;;;;;;20.15;100.00;99683.69;5188260;28;20030;-77
2023/07/28 08:55:30;;;;;;;3.38;2.60;;;;;;;20.17;100.00;99671.97;5167151;28;20400;-78
2023/07/28 08:58:33;;;;;;;2.88;2.38;;;;;;;20.31;100.00;99676.03;5144921;28;20023;-78
2023/07/28 09:01:04;;;;;;;3.15;2.40;;;;;;;20.41;100.00;99669.75;5173771;28;20086;-76
2023/07/28 09:03:40;;;;;;;4.82;2.20;;;;;;;20.35;100.00;99680.94;5169722;28;20082;-78
2023/07/28 09:06:10;;;;;;;4.18;2.08;;;;;;;20.41;100.00;99683.03;5165643;28;20035;-77
2023/07/28 09:08:43;;;;;;;4.00;2.30;;;;;;;20.34;100.00;99673.97;5183561;28;20431;-78
2023/07/28 09:11:13;;;;;;;2.65;2.25;;;;;;;20.41;100.00;99684.84;5167704;28;20771;-77
2023/07/28 09:13:43;;;;;;;2.45;1.98;;;;;;;20.37;100.00;99684.28;5164247;28;20057;-77
2023/07/28 09:16:18;;;;;;;2.80;2.13;;;;;;;20.30;100.00;99683.16;5154503;28;20110;-78
2023/07/28 09:18:48;;;;;;;2.70;2.25;;;;;;;20.25;100.00;99682.72;5165106;28;20579;-75
2023/07/28 09:21:20;;;;;;;2.80;2.50;;;;;;;20.29;100.00;99686.78;5172870;28;20028;-78
2023/07/28 09:23:51;;;;;;;2.80;2.35;;;;;;;20.41;100.00;99685.69;5151306;28;20408;-77
2023/07/28 09:26:21;;;;;;;2.95;2.35;;;;;;;20.58;100.00;99686.81;5164835;28;20027;-77
2023/07/28 09:28:52;;;;;;;3.42;2.20;;;;;;;20.72;100.00;99684.59;5160426;28;20030;-77
2023/07/28 09:31:30;;;;;;;3.33;2.58;;;;;;;20.62;100.00;99688.22;5159480;28;20035;-78
2023/07/28 09:34:00;;;;;;;4.80;2.50;;;;;;;20.88;100.00;99696.34;5152653;28;20026;-78
2023/07/28 09:36:31;;;;;;;3.90;2.50;;;;;;;21.01;100.00;99694.25;5156070;28;20073;-77
2023/07/28 09:39:02;;;;;;;6.22;2.45;;;;;;;21.11;100.00;99688.94;5174352;28;20282;-77
2023/07/28 09:41:36;;;;;;;4.22;2.50;;;;;;;21.34;100.00;99687.63;5166697;28;20096;-78
2023/07/28 09:44:06;;;;;;;2.40;2.20;;;;;;;21.82;100.00;99683.00;5155103;28;20035;-75
2023/07/28 09:46:49;;;;;;;2.50;2.10;;;;;;;22.39;100.00;99682.75;5159382;28;20546;-77
2023/07/28 09:49:34;;;;;;;4.18;2.30;;;;;;;22.70;100.00;99677.72;5158326;28;20451;-78
2023/07/28 09:52:09;;;;;;;2.30;1.88;;;;;;;22.96;100.00;99686.63;5151418;28;20050;-77
2023/07/28 09:54:41;;;;;;;2.05;1.60;;;;;;;23.51;100.00;99680.03;5150427;28;20026;-78
2023/07/28 09:57:13;;;;;;;2.05;1.63;;;;;;;23.59;100.00;99688.13;5147229;28;20033;-77
2023/07/28 09:59:46;;;;;;;2.25;1.80;;;;;;;23.22;100.00;99689.34;5155125;28;20034;-76
2023/07/28 10:02:17;;;;;;;2.83;1.70;;;;;;;22.89;100.00;99682.91;5154284;28;20480;-77
2023/07/28 10:04:47;;;;;;;2.00;1.60;;;;;;;22.50;100.00;99685.16;5161713;28;20193;-75
2023/07/28 10:07:18;;;;;;;2.30;1.83;;;;;;;22.82;100.00;99687.16;5175111;28;20059;-77
2023/07/28 10:09:48;;;;;;;2.25;1.50;;;;;;;23.18;100.00;99682.66;5146740;28;20086;-74
2023/07/28 10:12:24;;;;;;;2.15;1.40;;;;;;;23.33;100.00;99681.94;5219301;28;20035;-77
2023/07/28 10:15:03;;;;;;;1.50;1.30;;;;;;;23.66;100.00;99681.13;5166284;28;20034;-77
2023/07/28 10:17:34;;;;;;;2.80;1.15;;;;;;;23.66;100.00;99683.81;5167910;28;20024;-77
2023/07/28 10:20:09;;;;;;;4.60;1.15;;;;;;;23.46;100.00;99687.69;5178164;28;20101;-77
2023/07/28 10:22:45;;;;;;;1.80;1.10;;;;;;;22.83;100.00;99688.81;5157387;28;20392;-77
2023/07/28 10:25:23;;;;;;;1.70;1.17;;;;;;;22.57;100.00;99688.91;5156236;28;20877;-76
2023/07/28 10:27:53;;;;;;;1.50;1.20;;;;;;;22.41;100.00;99696.75;5149130;28;20029;-77
2023/07/28 10:30:24;;;;;;;1.50;1.13;;;;;;;22.39;100.00;99696.06;5172331;28;20035;-77
2023/07/28 10:32:55;;;;;;;1.55;1.10;;;;;;;22.51;100.00;99687.69;5149672;28;20069;-77
2023/07/28 10:35:27;;;;;;;1.85;1.40;;;;;;;22.50;100.00;99695.81;5147466;28;20088;-74
2023/07/28 10:37:58;;;;;;;1.80;1.40;;;;;;;22.29;100.00;99690.72;5150714;28;20023;-77
2023/07/28 10:40:38;;;;;;;1.48;1.20;;;;;;;22.46;100.00;99689.13;5167240;28;20404;-77
2023/07/28 10:43:09;;;;;;;2.00;1.20;;;;;;;22.69;100.00;99692.03;5168672;28;20065;-77
2023/07/28 10:45:39;;;;;;;1.50;1.20;;;;;;;22.69;100.00;99692.03;5187465;28;20214;-77
2023/07/28 10:48:10;;;;;;;1.97;1.30;;;;;;;22.75;100.00;99702.09;5140600;28;20027;-77
2023/07/28 10:50:41;;;;;;;1.80;1.20;;;;;;;22.73;100.00;99707.72;5159414;28;20293;-77
2023/07/28 10:53:12;;;;;;;11.13;1.48;;;;;;;22.80;100.00;99699.81;5139801;28;20743;-77
2023/07/28 10:55:42;;;;;;;2.08;1.50;;;;;;;23.23;100.00;99691.84;5168257;28;20149;-77
2023/07/28 10:58:12;;;;;;;2.20;1.20;;;;;;;23.71;100.00;99689.50;5159607;28;20027;-77
2023/07/28 11:00:43;;;;;;;3.53;1.20;;;;;;;23.77;100.00;99683.53;5175123;28;20039;-75
2023/07/28 11:03:13;;;;;;;1.50;1.30;;;;;;;23.89;100.00;99692.94;5181376;28;20655;-73
2023/07/28 11:05:44;;;;;;;1.42;1.23;;;;;;;24.08;100.00;99687.34;5157333;28;20039;-74
2023/07/28 11:08:14;;;;;;;1.65;1.10;;;;;;;24.35;97.89;99688.97;5142210;28;20520;-73
2023/07/28 11:10:44;;;;;;;1.90;1.40;;;;;;;24.55;98.33;99691.22;5153646;28;20038;-74
2023/07/28 11:13:15;;;;;;;1.40;1.08;;;;;;;25.04;96.20;99685.75;5153063;28;20064;-74
2023/07/28 11:15:45;;;;;;;4.18;1.20;;;;;;;24.86;97.07;99689.59;5161221;28;20290;-76
2023/07/28 11:18:16;;;;;;;1.55;1.10;;;;;;;24.70;93.14;99684.22;5136415;28;20027;-74
2023/07/28 11:20:46;;;;;;;4.68;1.10;;;;;;;24.49;93.90;99685.66;5140993;28;20026;-76
2023/07/28 11:23:17;;;;;;;2.65;1.42;;;;;;;24.31;93.46;99699.13;5156107;28;20077;-75
2023/07/28 11:25:47;;;;;;;1.65;1.30;;;;;;;24.05;93.92;99697.53;5134865;28;20058;-73
2023/07/28 11:28:19;;;;;;;3.00;1.27;;;;;;;23.87;95.08;99702.13;5141350;28;20114;-76
2023/07/28 11:30:49;;;;;;;1.55;1.13;;;;;;;24.13;94.33;99703.75;5133323;28;20035;-76
2023/07/28 11:33:20;;;;;;;2.10;1.17;;;;;;;24.18;96.00;99704.09;5154326;28;20032;-76
2023/07/28 11:35:50;;;;;;;1.67;1.30;;;;;;;24.38;95.95;99702.00;5161560;28;20426;-76
2023/07/28 11:38:21;;;;;;;1.30;1.13;;;;;;;24.39;95.84;99701.81;5139237;28;20441;-76
2023/07/28 11:40:51;;;;;;;1.90;1.50;;;;;;;24.15;95.00;99700.91;5167450;28;20336;-76
2023/07/28 11:43:23;;;;;;;2.33;1.40;;;;;;;24.42;96.99;99693.47;5170187;28;20024;-76